Time;durP1;ratioP1;P1;durP2;ratioP2;P2;SDS_P1;SDS_P2;PMS_P1;PMS_P2;Temp;Humidity;BMP_temperature;BMP_pressure;BME280_temperature;BME280_humidity;BME280_pressure;Samples;Min_cycle;Max_cycle;Signal;HPM_P1;HPM_P2
2021/10/24 00:00:09;;;;;;;2.50;0.70;;;;;;;;;;4956852;28;20547;-58
2021/10/24 00:02:36;;;;;;;2.97;0.80;;;;;;;;;;4954426;28;20191;-60
2021/10/24 00:05:03;;;;;;;2.33;0.90;;;;;;;;;;4956150;28;20050;-58
2021/10/24 00:07:28;;;;;;;2.22;0.80;;;;;;;;;;4954547;28;20492;-61
2021/10/24 00:09:56;;;;;;;5.50;0.80;;;;;;;;;;4956266;28;20148;-59
2021/10/24 00:12:21;;;;;;;3.00;1.00;;;;;;;;;;4954715;28;20058;-59
2021/10/24 00:14:47;;;;;;;2.70;0.90;;;;;;;;;;4953799;28;20075;-59
2021/10/24 00:17:13;;;;;;;2.85;0.90;;;;;;;;;;4950178;28;20065;-59
2021/10/24 00:19:39;;;;;;;4.45;0.90;;;;;;;;;;4951305;28;20106;-59
2021/10/24 00:22:05;;;;;;;2.95;1.00;;;;;;;;;;4951804;28;20200;-59
2021/10/24 00:24:31;;;;;;;2.95;1.20;;;;;;;;;;4951886;28;20381;-59
2021/10/24 00:26:57;;;;;;;2.85;1.00;;;;;;;;;;4954494;28;20150;-58
2021/10/24 00:29:23;;;;;;;4.63;1.10;;;;;;;;;;4954603;28;20397;-59
2021/10/24 00:31:49;;;;;;;4.00;1.20;;;;;;;;;;4952705;28;20050;-60
2021/10/24 00:34:15;;;;;;;3.72;1.40;;;;;;;;;;4954452;28;20050;-58
2021/10/24 00:36:41;;;;;;;3.25;1.33;;;;;;;;;;4950995;28;20121;-60
2021/10/24 00:39:07;;;;;;;4.65;1.42;;;;;;;;;;4952038;28;20070;-59
2021/10/24 00:41:33;;;;;;;3.80;1.85;;;;;;;;;;4949601;28;20715;-59
2021/10/24 00:43:59;;;;;;;3.25;1.40;;;;;;;;;;4967285;28;20654;-59
2021/10/24 00:46:25;;;;;;;5.15;2.03;;;;;;;;;;4952776;28;20055;-59
2021/10/24 00:48:51;;;;;;;4.00;1.70;;;;;;;;;;4952895;28;20133;-57
2021/10/24 00:51:18;;;;;;;5.32;2.33;;;;;;;;;;4953130;28;20538;-59
2021/10/24 00:53:44;;;;;;;4.88;2.10;;;;;;;;;;4952620;28;20035;-57
2021/10/24 00:56:11;;;;;;;5.13;1.98;;;;;;;;;;4937921;28;20125;-59
2021/10/24 00:58:37;;;;;;;4.57;2.50;;;;;;;;;;4948922;28;20093;-58
2021/10/24 01:01:03;;;;;;;6.65;3.40;;;;;;;;;;4964994;28;20045;-58
2021/10/24 01:03:29;;;;;;;8.48;4.40;;;;;;;;;;4950097;28;20044;-59
2021/10/24 01:05:55;;;;;;;5.72;3.15;;;;;;;;;;4950301;28;20106;-59
2021/10/24 01:08:21;;;;;;;7.32;3.13;;;;;;;;;;4949117;28;20052;-58
2021/10/24 01:10:47;;;;;;;5.25;2.60;;;;;;;;;;4952401;28;20043;-58
2021/10/24 01:13:13;;;;;;;5.60;2.53;;;;;;;;;;4952802;28;20046;-59
2021/10/24 01:15:39;;;;;;;5.30;2.97;;;;;;;;;;4954413;28;20650;-60
2021/10/24 01:18:07;;;;;;;6.93;3.28;;;;;;;;;;4954186;28;20797;-59
2021/10/24 01:20:33;;;;;;;8.23;3.53;;;;;;;;;;4956349;28;20466;-60
2021/10/24 01:22:59;;;;;;;6.82;4.38;;;;;;;;;;4950636;28;20069;-60
2021/10/24 01:25:25;;;;;;;10.10;5.22;;;;;;;;;;4963051;28;20045;-60
2021/10/24 01:27:51;;;;;;;8.43;3.72;;;;;;;;;;4960299;28;20515;-60
2021/10/24 01:30:17;;;;;;;7.22;3.20;;;;;;;;;;4954007;28;20054;-59
2021/10/24 01:32:43;;;;;;;7.50;3.08;;;;;;;;;;4952003;28;20047;-58
2021/10/24 01:35:09;;;;;;;6.18;2.80;;;;;;;;;;4952419;28;20047;-60
2021/10/24 01:37:38;;;;;;;6.18;2.38;;;;;;;;;;4951105;28;20039;-59
2021/10/24 01:40:06;;;;;;;4.95;2.40;;;;;;;;;;4950819;28;20170;-59
2021/10/24 01:42:32;;;;;;;5.38;2.03;;;;;;;;;;4948472;28;20074;-59
2021/10/24 01:44:58;;;;;;;4.63;1.88;;;;;;;;;;4950214;28;20070;-60
2021/10/24 01:47:24;;;;;;;6.13;2.30;;;;;;;;;;4951632;28;21965;-58
2021/10/24 01:49:50;;;;;;;5.15;2.20;;;;;;;;;;4953396;28;20089;-61
2021/10/24 01:52:16;;;;;;;4.80;2.13;;;;;;;;;;4952595;28;20161;-58
2021/10/24 01:54:43;;;;;;;5.43;2.40;;;;;;;;;;4953159;28;20043;-61
2021/10/24 01:57:09;;;;;;;4.75;2.22;;;;;;;;;;4951163;28;20039;-58
2021/10/24 01:59:34;;;;;;;6.78;2.40;;;;;;;;;;4966040;28;20637;-60
2021/10/24 02:02:00;;;;;;;5.03;2.30;;;;;;;;;;4966819;28;20119;-59
2021/10/24 02:04:27;;;;;;;5.00;2.33;;;;;;;;;;4949321;28;20574;-59
2021/10/24 02:06:53;;;;;;;5.18;2.70;;;;;;;;;;4951027;28;20063;-59
2021/10/24 02:09:19;;;;;;;4.38;2.50;;;;;;;;;;4951176;28;20070;-58
2021/10/24 02:11:44;;;;;;;6.68;3.13;;;;;;;;;;4954219;28;20492;-59
2021/10/24 02:14:10;;;;;;;5.45;3.20;;;;;;;;;;4968387;28;20057;-59
2021/10/24 02:16:36;;;;;;;7.70;2.85;;;;;;;;;;4953664;28;20052;-58
2021/10/24 02:19:02;;;;;;;7.82;2.78;;;;;;;;;;4957013;28;20537;-59
2021/10/24 02:21:28;;;;;;;5.78;3.10;;;;;;;;;;4955186;28;20042;-59
2021/10/24 02:23:54;;;;;;;6.47;3.53;;;;;;;;;;4954188;28;20035;-60
2021/10/24 02:26:20;;;;;;;7.28;3.85;;;;;;;;;;4953712;28;20042;-59
2021/10/24 02:28:46;;;;;;;6.63;3.58;;;;;;;;;;4950882;28;20031;-60
2021/10/24 02:31:11;;;;;;;6.93;3.88;;;;;;;;;;4954460;28;20042;-60
2021/10/24 02:33:37;;;;;;;9.20;4.13;;;;;;;;;;4953631;28;20054;-58
2021/10/24 02:36:03;;;;;;;8.20;3.92;;;;;;;;;;4954486;28;20050;-59
2021/10/24 02:38:29;;;;;;;11.10;4.90;;;;;;;;;;4953822;28;20043;-59
2021/10/24 02:40:55;;;;;;;8.25;5.03;;;;;;;;;;4954463;28;20032;-58
2021/10/24 02:43:20;;;;;;;10.40;5.10;;;;;;;;;;4951996;28;20074;-59
2021/10/24 02:45:46;;;;;;;7.82;4.95;;;;;;;;;;4952998;28;20476;-58
2021/10/24 02:48:12;;;;;;;10.27;5.80;;;;;;;;;;4955244;28;20101;-59
2021/10/24 02:50:39;;;;;;;11.07;6.53;;;;;;;;;;4954503;28;20051;-59
2021/10/24 02:53:05;;;;;;;11.20;6.95;;;;;;;;;;4956678;28;20133;-59
2021/10/24 02:55:31;;;;;;;11.65;6.38;;;;;;;;;;4956940;28;20520;-59
2021/10/24 02:57:57;;;;;;;11.95;6.55;;;;;;;;;;4954554;28;20399;-60
2021/10/24 03:00:24;;;;;;;12.35;6.57;;;;;;;;;;4954547;28;20503;-59
2021/10/24 03:02:50;;;;;;;12.32;6.97;;;;;;;;;;4954815;28;20047;-58
2021/10/24 03:05:16;;;;;;;13.27;8.38;;;;;;;;;;4952184;28;20117;-59
2021/10/24 03:07:43;;;;;;;12.02;7.60;;;;;;;;;;4950808;28;20523;-59
2021/10/24 03:10:09;;;;;;;13.57;8.48;;;;;;;;;;4952652;28;20045;-59
2021/10/24 03:12:35;;;;;;;14.02;8.68;;;;;;;;;;4953107;28;20043;-59
2021/10/24 03:15:02;;;;;;;13.82;8.45;;;;;;;;;;4951471;28;20078;-59
2021/10/24 03:17:27;;;;;;;15.55;9.10;;;;;;;;;;4952157;28;20055;-60
2021/10/24 03:19:53;;;;;;;14.70;9.13;;;;;;;;;;4954656;28;20058;-57
2021/10/24 03:22:19;;;;;;;11.82;8.27;;;;;;;;;;4955308;28;20134;-58
2021/10/24 03:24:45;;;;;;;14.40;8.90;;;;;;;;;;4955550;28;20041;-58
2021/10/24 03:27:11;;;;;;;16.10;9.27;;;;;;;;;;4951336;28;20094;-59
2021/10/24 03:29:36;;;;;;;15.73;9.40;;;;;;;;;;4952423;28;20031;-60
2021/10/24 03:32:02;;;;;;;17.52;9.85;;;;;;;;;;4953249;28;20089;-58
2021/10/24 03:34:28;;;;;;;15.57;9.85;;;;;;;;;;4955012;28;20038;-58
2021/10/24 03:36:54;;;;;;;16.08;10.23;;;;;;;;;;4955495;28;20349;-58
2021/10/24 03:39:20;;;;;;;14.77;9.10;;;;;;;;;;4955818;28;20038;-60
2021/10/24 03:41:46;;;;;;;14.80;8.35;;;;;;;;;;4956383;28;20244;-60
2021/10/24 03:44:12;;;;;;;14.82;8.75;;;;;;;;;;4962357;28;20047;-59
2021/10/24 03:46:38;;;;;;;15.43;9.20;;;;;;;;;;4955208;28;20113;-58
2021/10/24 03:49:03;;;;;;;18.55;10.52;;;;;;;;;;4957719;28;20094;-60
2021/10/24 03:51:29;;;;;;;17.40;10.43;;;;;;;;;;4954728;28;20034;-59
2021/10/24 03:53:55;;;;;;;17.23;10.10;;;;;;;;;;4957270;28;20042;-59
2021/10/24 03:56:21;;;;;;;17.38;9.88;;;;;;;;;;4957123;28;20411;-60
2021/10/24 03:58:47;;;;;;;18.25;11.00;;;;;;;;;;4956336;28;20030;-58
2021/10/24 04:01:13;;;;;;;15.38;9.80;;;;;;;;;;4958547;28;20522;-57
2021/10/24 04:03:38;;;;;;;20.25;11.18;;;;;;;;;;4954932;28;20047;-59
2021/10/24 04:06:05;;;;;;;16.08;10.02;;;;;;;;;;4958093;28;20039;-58
2021/10/24 04:08:31;;;;;;;20.02;11.50;;;;;;;;;;4953093;28;20051;-59
2021/10/24 04:10:57;;;;;;;19.15;11.18;;;;;;;;;;4954980;28;20400;-60
2021/10/24 04:13:24;;;;;;;20.83;10.75;;;;;;;;;;4954164;28;20046;-59
2021/10/24 04:15:49;;;;;;;19.58;10.80;;;;;;;;;;4955732;28;20035;-59
2021/10/24 04:18:15;;;;;;;17.15;10.13;;;;;;;;;;4954103;28;20093;-55
2021/10/24 04:20:41;;;;;;;17.13;10.15;;;;;;;;;;4954544;28;20095;-60
2021/10/24 04:23:07;;;;;;;16.77;10.60;;;;;;;;;;4956704;28;20046;-59
2021/10/24 04:25:33;;;;;;;16.75;10.85;;;;;;;;;;4954188;28;20038;-59
2021/10/24 04:27:59;;;;;;;16.42;10.15;;;;;;;;;;4952747;28;20520;-58
2021/10/24 04:30:25;;;;;;;16.40;10.35;;;;;;;;;;4954563;28;20039;-58
2021/10/24 04:32:51;;;;;;;19.27;11.15;;;;;;;;;;4957690;28;20062;-58
2021/10/24 04:35:17;;;;;;;16.45;10.48;;;;;;;;;;4957164;28;20041;-61
2021/10/24 04:37:43;;;;;;;16.30;9.80;;;;;;;;;;4956586;28;20043;-58
2021/10/24 04:40:10;;;;;;;16.25;10.23;;;;;;;;;;4957938;28;20035;-58
2021/10/24 04:42:36;;;;;;;17.27;9.88;;;;;;;;;;4953944;28;20539;-60
2021/10/24 04:45:04;;;;;;;17.30;10.15;;;;;;;;;;4953150;28;20043;-59
2021/10/24 04:47:30;;;;;;;15.98;10.70;;;;;;;;;;4969537;28;20058;-59
2021/10/24 04:50:15;;;;;;;19.10;11.40;;;;;;;;;;4951993;28;20043;-61
2021/10/24 04:52:41;;;;;;;19.75;11.10;;;;;;;;;;4941100;28;20046;-60
2021/10/24 04:55:07;;;;;;;17.17;10.95;;;;;;;;;;4951826;28;20074;-59
2021/10/24 04:57:34;;;;;;;17.92;11.07;;;;;;;;;;4947931;28;20046;-60
2021/10/24 05:00:00;;;;;;;17.27;10.75;;;;;;;;;;4948519;28;20051;-60
2021/10/24 05:02:25;;;;;;;19.25;11.75;;;;;;;;;;4949156;28;20045;-58
2021/10/24 05:04:51;;;;;;;19.77;11.50;;;;;;;;;;4951475;28;20054;-61
2021/10/24 05:07:17;;;;;;;18.55;11.18;;;;;;;;;;4934334;28;20050;-56
2021/10/24 05:09:43;;;;;;;20.73;11.90;;;;;;;;;;4949632;28;20046;-57
2021/10/24 05:12:09;;;;;;;17.20;11.52;;;;;;;;;;4948179;28;20126;-61
2021/10/24 05:14:35;;;;;;;19.98;12.77;;;;;;;;;;4946630;28;20120;-57
2021/10/24 05:17:00;;;;;;;19.10;12.10;;;;;;;;;;4946687;28;20035;-58
2021/10/24 05:19:26;;;;;;;22.90;12.77;;;;;;;;;;4946145;28;20047;-59
2021/10/24 05:21:52;;;;;;;20.40;13.07;;;;;;;;;;4946672;28;20501;-59
2021/10/24 05:24:18;;;;;;;21.15;12.65;;;;;;;;;;4945188;28;20138;-60
2021/10/24 05:26:44;;;;;;;21.55;13.15;;;;;;;;;;4948095;28;20054;-59
2021/10/24 05:29:10;;;;;;;27.90;13.30;;;;;;;;;;4949806;28;20068;-59
2021/10/24 05:31:36;;;;;;;20.02;12.77;;;;;;;;;;4948788;28;20214;-60
2021/10/24 05:34:02;;;;;;;22.58;12.95;;;;;;;;;;4951443;28;20034;-58
2021/10/24 05:36:28;;;;;;;25.77;14.75;;;;;;;;;;4950257;28;20045;-60
2021/10/24 05:38:54;;;;;;;24.17;12.98;;;;;;;;;;4950423;28;20141;-61
2021/10/24 05:41:20;;;;;;;23.52;14.15;;;;;;;;;;4949403;28;20487;-61
2021/10/24 05:43:46;;;;;;;25.75;14.15;;;;;;;;;;4951849;28;20093;-60
2021/10/24 05:46:12;;;;;;;24.58;13.60;;;;;;;;;;4949855;28;20052;-60
2021/10/24 05:48:38;;;;;;;29.40;14.95;;;;;;;;;;4950332;28;20046;-59
2021/10/24 05:51:04;;;;;;;23.95;14.85;;;;;;;;;;4950798;28;20051;-59
2021/10/24 05:53:30;;;;;;;24.90;15.23;;;;;;;;;;4948923;28;20125;-60
2021/10/24 05:55:56;;;;;;;27.92;14.35;;;;;;;;;;4951353;28;20807;-60
2021/10/24 05:58:22;;;;;;;24.70;15.50;;;;;;;;;;4951769;28;20649;-59
2021/10/24 06:00:48;;;;;;;30.50;16.02;;;;;;;;;;4950299;28;20035;-59
2021/10/24 06:03:14;;;;;;;28.85;15.45;;;;;;;;;;4952014;28;20201;-60
2021/10/24 06:05:40;;;;;;;29.60;14.98;;;;;;;;;;4966450;28;20226;-59
2021/10/24 06:08:06;;;;;;;28.33;15.65;;;;;;;;;;4950826;28;20054;-60
2021/10/24 06:10:34;;;;;;;28.77;15.88;;;;;;;;;;4952469;28;20066;-59
2021/10/24 06:13:01;;;;;;;28.67;14.57;;;;;;;;;;4951515;28;20512;-58
2021/10/24 06:15:27;;;;;;;42.83;16.63;;;;;;;;;;4952334;28;20051;-60
2021/10/24 06:17:53;;;;;;;25.15;15.13;;;;;;;;;;4970219;28;20043;-60
2021/10/24 06:20:20;;;;;;;24.27;13.82;;;;;;;;;;4952262;28;20035;-60
2021/10/24 06:22:47;;;;;;;29.23;15.45;;;;;;;;;;4951374;28;20055;-61
2021/10/24 06:25:13;;;;;;;27.88;15.52;;;;;;;;;;4951517;28;20035;-58
2021/10/24 06:27:40;;;;;;;31.23;15.85;;;;;;;;;;4947249;28;20057;-61
2021/10/24 06:30:07;;;;;;;27.58;15.65;;;;;;;;;;4965968;28;20046;-57
2021/10/24 06:32:33;;;;;;;26.83;13.95;;;;;;;;;;4948948;28;20046;-60
2021/10/24 06:35:00;;;;;;;26.58;14.15;;;;;;;;;;4950457;28;20043;-60
2021/10/24 06:37:27;;;;;;;27.27;14.55;;;;;;;;;;4948789;28;20039;-59
2021/10/24 06:39:52;;;;;;;29.20;14.57;;;;;;;;;;4966666;28;20126;-60
2021/10/24 06:42:18;;;;;;;30.80;14.65;;;;;;;;;;4949488;28;20046;-59
2021/10/24 06:44:44;;;;;;;25.73;14.43;;;;;;;;;;4952930;28;20690;-59
2021/10/24 06:47:10;;;;;;;28.08;14.02;;;;;;;;;;4950704;28;20054;-58
2021/10/24 06:49:36;;;;;;;22.65;12.75;;;;;;;;;;4951469;28;20047;-60
2021/10/24 06:52:05;;;;;;;24.35;13.77;;;;;;;;;;4951577;28;20047;-59
2021/10/24 06:54:32;;;;;;;23.25;12.45;;;;;;;;;;4951847;28;20096;-59
2021/10/24 06:56:57;;;;;;;26.17;13.18;;;;;;;;;;4951347;28;20059;-61
2021/10/24 06:59:23;;;;;;;21.85;11.35;;;;;;;;;;4965385;28;20507;-61
2021/10/24 07:01:49;;;;;;;19.13;12.18;;;;;;;;;;4955048;28;20043;-59
2021/10/24 07:04:15;;;;;;;19.63;11.82;;;;;;;;;;4952702;28;20057;-59
2021/10/24 07:06:41;;;;;;;19.42;11.40;;;;;;;;;;4953903;28;20059;-60
2021/10/24 07:09:07;;;;;;;16.73;10.20;;;;;;;;;;4954624;28;20043;-60
2021/10/24 07:11:33;;;;;;;18.02;10.07;;;;;;;;;;4948069;28;20043;-61
2021/10/24 07:13:58;;;;;;;19.92;10.00;;;;;;;;;;4966906;28;20802;-60
2021/10/24 07:16:24;;;;;;;16.50;10.07;;;;;;;;;;4951047;28;20061;-60
2021/10/24 07:18:51;;;;;;;16.17;9.60;;;;;;;;;;4952844;28;20050;-61
2021/10/24 07:21:17;;;;;;;17.23;10.23;;;;;;;;;;4950992;28;20113;-60
2021/10/24 07:23:43;;;;;;;18.77;10.85;;;;;;;;;;4968286;28;20038;-60
2021/10/24 07:26:09;;;;;;;18.73;11.05;;;;;;;;;;4952704;28;20081;-60
2021/10/24 07:28:34;;;;;;;16.80;11.18;;;;;;;;;;4952652;28;20140;-61
2021/10/24 07:31:00;;;;;;;20.58;11.32;;;;;;;;;;4967407;28;20138;-60
2021/10/24 07:33:29;;;;;;;17.90;10.88;;;;;;;;;;4951142;28;20047;-60
2021/10/24 07:35:55;;;;;;;15.85;9.57;;;;;;;;;;4952620;28;20499;-60
2021/10/24 07:38:21;;;;;;;15.70;9.40;;;;;;;;;;4952877;28;20530;-59
2021/10/24 07:40:49;;;;;;;15.93;8.95;;;;;;;;;;4953260;28;20047;-59
2021/10/24 07:43:15;;;;;;;17.80;7.75;;;;;;;;;;4954615;28;20542;-59
2021/10/24 07:45:41;;;;;;;12.48;6.93;;;;;;;;;;4953973;28;20039;-59
2021/10/24 07:48:07;;;;;;;10.52;6.35;;;;;;;;;;4953126;28;20445;-60
2021/10/24 07:50:33;;;;;;;11.88;5.80;;;;;;;;;;4952945;28;20071;-60
2021/10/24 07:53:02;;;;;;;9.68;6.38;;;;;;;;;;4955883;28;20531;-60
2021/10/24 07:55:28;;;;;;;9.38;5.03;;;;;;;;;;4955311;28;20145;-60
2021/10/24 07:57:55;;;;;;;8.98;5.13;;;;;;;;;;4957401;28;20051;-62
2021/10/24 08:00:20;;;;;;;8.38;5.43;;;;;;;;;;4957179;28;20094;-59
2021/10/24 08:02:47;;;;;;;13.18;5.63;;;;;;;;;;4954933;28;20106;-59
2021/10/24 08:05:13;;;;;;;10.57;5.80;;;;;;;;;;4953691;28;20047;-59
2021/10/24 08:07:39;;;;;;;10.35;5.45;;;;;;;;;;4953182;28;20043;-60
2021/10/24 08:10:08;;;;;;;11.00;5.32;;;;;;;;;;4951403;28;20066;-60
2021/10/24 08:12:35;;;;;;;8.75;5.40;;;;;;;;;;4949673;28;20042;-60
2021/10/24 08:15:00;;;;;;;9.38;5.00;;;;;;;;;;4939423;28;20057;-60
2021/10/24 08:17:27;;;;;;;9.13;4.35;;;;;;;;;;4931922;28;20942;-59
2021/10/24 08:19:53;;;;;;;8.60;4.75;;;;;;;;;;4905408;29;20055;-56
2021/10/24 08:22:19;;;;;;;8.93;4.43;;;;;;;;;;4933244;29;20043;-58
2021/10/24 08:24:45;;;;;;;8.65;4.43;;;;;;;;;;4934048;29;20066;-59
2021/10/24 08:27:11;;;;;;;10.25;4.95;;;;;;;;;;4932912;28;20600;-59
2021/10/24 08:29:37;;;;;;;10.32;4.35;;;;;;;;;;4933646;29;20044;-59
2021/10/24 08:32:06;;;;;;;9.77;5.30;;;;;;;;;;4935157;29;20078;-58
2021/10/24 08:34:32;;;;;;;12.38;4.38;;;;;;;;;;4922765;29;20080;-55
2021/10/24 08:36:58;;;;;;;9.60;4.90;;;;;;;;;;4931910;29;20109;-54
2021/10/24 08:39:24;;;;;;;7.72;4.38;;;;;;;;;;4933074;28;20043;-54
2021/10/24 08:41:51;;;;;;;7.90;4.18;;;;;;;;;;4933673;28;20639;-55
2021/10/24 08:44:17;;;;;;;7.78;4.78;;;;;;;;;;4932207;29;20043;-56
2021/10/24 08:46:43;;;;;;;9.75;4.93;;;;;;;;;;4932586;28;20047;-57
2021/10/24 08:49:09;;;;;;;7.38;4.35;;;;;;;;;;4934221;29;20047;-55
2021/10/24 08:51:35;;;;;;;8.85;4.53;;;;;;;;;;4933571;29;20067;-58
2021/10/24 08:54:02;;;;;;;7.43;4.55;;;;;;;;;;4932563;29;20048;-58
2021/10/24 08:56:29;;;;;;;8.10;4.40;;;;;;;;;;4930839;28;20051;-58
2021/10/24 08:58:56;;;;;;;9.55;4.13;;;;;;;;;;4934291;29;20071;-58
2021/10/24 09:01:22;;;;;;;7.88;4.32;;;;;;;;;;4931565;28;20067;-58
2021/10/24 09:04:08;;;;;;;8.70;4.40;;;;;;;;;;4933649;28;20145;-59
2021/10/24 09:06:44;;;;;;;7.20;3.95;;;;;;;;;;4933145;29;20729;-57
2021/10/24 09:09:11;;;;;;;9.10;4.50;;;;;;;;;;4933030;29;20106;-60
2021/10/24 09:11:39;;;;;;;6.90;4.35;;;;;;;;;;4932580;29;20050;-60
2021/10/24 09:14:05;;;;;;;9.30;4.68;;;;;;;;;;4934978;28;20225;-60
2021/10/24 09:16:50;;;;;;;8.65;4.47;;;;;;;;;;4935286;28;20051;-60
2021/10/24 09:19:18;;;;;;;8.82;4.38;;;;;;;;;;4936383;28;20076;-60
2021/10/24 09:21:44;;;;;;;8.48;4.40;;;;;;;;;;4934199;28;20055;-60
2021/10/24 09:24:10;;;;;;;9.00;4.20;;;;;;;;;;4935350;28;20688;-60
2021/10/24 09:26:37;;;;;;;7.78;4.30;;;;;;;;;;4931581;28;20043;-60
2021/10/24 09:29:07;;;;;;;8.00;4.20;;;;;;;;;;4932935;28;20508;-59
2021/10/24 09:31:34;;;;;;;8.77;4.20;;;;;;;;;;4934085;28;20035;-60
2021/10/24 09:34:12;;;;;;;7.68;4.03;;;;;;;;;;4936548;28;20171;-59
2021/10/24 09:36:58;;;;;;;8.07;3.90;;;;;;;;;;4935528;28;20039;-60
2021/10/24 09:39:27;;;;;;;4.55;2.75;;;;;;;;;;4932450;28;20043;-60
2021/10/24 09:42:09;;;;;;;7.38;3.10;;;;;;;;;;4935214;28;20050;-60
2021/10/24 09:44:34;;;;;;;5.72;2.92;;;;;;;;;;4931733;28;20576;-60
2021/10/24 09:47:00;;;;;;;6.35;2.65;;;;;;;;;;4932926;28;20115;-60
2021/10/24 09:49:27;;;;;;;5.40;2.58;;;;;;;;;;4926616;28;20638;-60
2021/10/24 09:51:53;;;;;;;4.40;2.42;;;;;;;;;;4934062;28;20070;-62
2021/10/24 09:54:22;;;;;;;4.38;2.25;;;;;;;;;;4931196;28;20047;-60
2021/10/24 09:56:48;;;;;;;5.15;2.55;;;;;;;;;;4932346;28;20051;-60
2021/10/24 09:59:16;;;;;;;4.65;2.38;;;;;;;;;;4934036;28;20175;-62
2021/10/24 10:01:44;;;;;;;4.65;2.17;;;;;;;;;;4935829;28;20047;-58
2021/10/24 10:04:11;;;;;;;3.75;2.05;;;;;;;;;;4934210;28;20074;-60
2021/10/24 10:06:36;;;;;;;4.13;2.00;;;;;;;;;;4935045;28;20047;-60
2021/10/24 10:09:02;;;;;;;6.45;1.95;;;;;;;;;;4935498;28;20102;-58
2021/10/24 10:11:40;;;;;;;4.57;2.00;;;;;;;;;;4935140;28;20050;-58
2021/10/24 10:14:13;;;;;;;4.55;2.00;;;;;;;;;;4933111;28;20435;-58
2021/10/24 10:16:40;;;;;;;4.05;2.25;;;;;;;;;;4953348;28;20050;-59
2021/10/24 10:19:07;;;;;;;4.40;1.92;;;;;;;;;;4955002;28;20563;-59
2021/10/24 10:21:37;;;;;;;3.83;1.75;;;;;;;;;;4954912;28;20090;-58
2021/10/24 10:24:04;;;;;;;4.43;2.22;;;;;;;;;;4954342;28;20031;-58
2021/10/24 10:26:32;;;;;;;4.35;2.30;;;;;;;;;;4945476;28;20447;-60
2021/10/24 10:28:57;;;;;;;4.25;2.10;;;;;;;;;;4953796;28;20845;-59
2021/10/24 10:31:23;;;;;;;5.40;2.33;;;;;;;;;;4954656;28;20050;-59
2021/10/24 10:34:05;;;;;;;4.35;2.05;;;;;;;;;;4956102;28;20039;-59
2021/10/24 10:36:49;;;;;;;3.63;1.80;;;;;;;;;;4957892;28;20117;-58
2021/10/24 10:39:14;;;;;;;;;;;;;;;;;;4958747;28;20114;-58
2021/10/24 10:41:43;;;;;;;5.15;1.85;;;;;;;;;;4955991;28;19919;-59
2021/10/24 10:44:09;;;;;;;4.30;2.05;;;;;;;;;;4951109;28;20066;-59
2021/10/24 10:46:35;;;;;;;4.90;2.00;;;;;;;;;;4954439;28;20502;-59
2021/10/24 10:49:19;;;;;;;3.90;2.03;;;;;;;;;;4956147;28;20058;-59
2021/10/24 10:51:45;;;;;;;4.90;2.15;;;;;;;;;;4954148;28;20057;-61
2021/10/24 10:54:10;;;;;;;4.40;2.10;;;;;;;;;;4954442;28;20475;-64
2021/10/24 10:56:39;;;;;;;4.70;2.22;;;;;;;;;;4952578;28;20522;-61
2021/10/24 10:59:06;;;;;;;5.75;2.33;;;;;;;;;;4955968;28;20150;-59
2021/10/24 11:01:34;;;;;;;3.92;2.20;;;;;;;;;;4954558;28;20062;-59
2021/10/24 11:04:08;;;;;;;5.05;2.10;;;;;;;;;;4956170;28;20053;-59
2021/10/24 11:06:36;;;;;;;4.38;1.83;;;;;;;;;;4954334;28;20039;-60
2021/10/24 11:09:02;;;;;;;3.67;1.88;;;;;;;;;;4955592;28;20043;-60
2021/10/24 11:11:45;;;;;;;5.25;2.42;;;;;;;;;;4967964;28;20069;-60
2021/10/24 11:14:11;;;;;;;3.75;1.83;;;;;;;;;;4955416;28;20061;-60
2021/10/24 11:16:41;;;;;;;5.50;2.50;;;;;;;;;;4953886;28;20043;-59
2021/10/24 11:19:25;;;;;;;5.40;3.20;;;;;;;;;;4957021;28;20768;-60
2021/10/24 11:21:52;;;;;;;5.30;2.88;;;;;;;;;;4957873;28;20054;-58
2021/10/24 11:24:19;;;;;;;4.43;2.85;;;;;;;;;;4973478;28;20170;-60
2021/10/24 11:26:46;;;;;;;5.22;3.13;;;;;;;;;;4954596;28;20126;-61
2021/10/24 11:29:12;;;;;;;5.75;3.50;;;;;;;;;;4955633;28;20046;-60
2021/10/24 11:31:38;;;;;;;6.30;3.50;;;;;;;;;;4954760;28;20485;-60
2021/10/24 11:34:04;;;;;;;5.47;3.40;;;;;;;;;;4955585;28;20046;-60
2021/10/24 11:36:30;;;;;;;4.88;2.67;;;;;;;;;;4954514;28;20579;-57
2021/10/24 11:39:01;;;;;;;5.43;3.17;;;;;;;;;;4952699;28;20535;-60
2021/10/24 11:41:27;;;;;;;8.18;3.08;;;;;;;;;;4956471;28;20050;-60
2021/10/24 11:44:04;;;;;;;5.93;2.70;;;;;;;;;;4955669;28;20404;-60
2021/10/24 11:46:30;;;;;;;4.78;2.85;;;;;;;;;;4953631;28;20031;-60
2021/10/24 11:49:05;;;;;;;5.65;2.72;;;;;;;;;;4955626;28;20051;-59
2021/10/24 11:51:34;;;;;;;7.18;3.13;;;;;;;;;;4953877;28;20062;-60
2021/10/24 11:54:00;;;;;;;9.35;3.45;;;;;;;;;;4953216;28;20070;-60
2021/10/24 12:01:30;;;;;;;8.65;2.97;;;;;;;;;;4954022;28;20059;-60
2021/10/24 12:04:02;;;;;;;5.45;2.80;;;;;;;;;;4953529;28;20056;-60
2021/10/24 12:06:51;;;;;;;5.13;2.93;;;;;;;;;;4953579;28;20055;-58
2021/10/24 12:09:30;;;;;;;4.60;2.45;;;;;;;;;;4956254;28;20047;-59
2021/10/24 12:12:05;;;;;;;6.55;2.65;;;;;;;;;;4953897;28;20387;-60
2021/10/24 12:14:30;;;;;;;5.40;2.58;;;;;;;;;;4953128;28;20055;-60
2021/10/24 12:16:57;;;;;;;5.93;3.03;;;;;;;;;;4969993;28;20377;-60
2021/10/24 12:19:29;;;;;;;4.93;2.58;;;;;;;;;;4955259;28;20071;-60
2021/10/24 12:21:55;;;;;;;5.80;2.80;;;;;;;;;;4972951;28;20049;-60
2021/10/24 12:24:22;;;;;;;6.47;3.25;;;;;;;;;;4957723;28;20043;-60
2021/10/24 12:26:49;;;;;;;5.20;2.40;;;;;;;;;;4961713;28;20054;-60
2021/10/24 12:29:16;;;;;;;4.60;2.50;;;;;;;;;;4973831;28;20050;-60
2021/10/24 12:31:42;;;;;;;5.07;2.47;;;;;;;;;;4972509;28;20035;-60
2021/10/24 12:34:13;;;;;;;5.22;2.35;;;;;;;;;;4982906;28;20078;-55
2021/10/24 12:36:39;;;;;;;4.00;2.17;;;;;;;;;;4981779;28;20035;-61
2021/10/24 12:39:21;;;;;;;11.35;2.50;;;;;;;;;;4974985;28;20042;-60
2021/10/24 12:41:48;;;;;;;5.35;2.35;;;;;;;;;;4959926;28;20065;-59
2021/10/24 12:44:15;;;;;;;4.82;2.35;;;;;;;;;;4960191;28;20050;-61
2021/10/24 12:46:41;;;;;;;5.50;2.47;;;;;;;;;;4957199;28;20031;-58
2021/10/24 12:49:11;;;;;;;3.80;2.20;;;;;;;;;;4958012;28;20035;-59
2021/10/24 12:51:37;;;;;;;4.75;2.30;;;;;;;;;;4956856;28;20038;-60
2021/10/24 12:54:05;;;;;;;5.75;2.20;;;;;;;;;;4956425;28;20747;-61
2021/10/24 12:56:32;;;;;;;5.45;2.58;;;;;;;;;;4955624;28;20043;-60
2021/10/24 12:58:59;;;;;;;4.10;2.22;;;;;;;;;;4956141;28;20066;-60
2021/10/24 13:01:35;;;;;;;4.63;2.13;;;;;;;;;;4957697;28;20145;-60
2021/10/24 13:04:01;;;;;;;5.40;2.65;;;;;;;;;;4957849;28;20408;-59
2021/10/24 13:06:29;;;;;;;5.75;2.30;;;;;;;;;;4952897;28;20449;-62
2021/10/24 13:08:56;;;;;;;10.85;2.53;;;;;;;;;;4955496;28;20051;-60
2021/10/24 13:11:23;;;;;;;5.88;2.78;;;;;;;;;;4968153;28;20043;-60
2021/10/24 13:13:49;;;;;;;4.80;2.63;;;;;;;;;;4950199;28;20729;-59
2021/10/24 13:16:15;;;;;;;5.28;2.72;;;;;;;;;;4935309;28;20161;-58
2021/10/24 13:18:41;;;;;;;4.97;2.70;;;;;;;;;;4950691;28;20067;-60
2021/10/24 13:21:10;;;;;;;4.32;2.55;;;;;;;;;;4953010;28;20054;-57
2021/10/24 13:23:37;;;;;;;4.57;2.03;;;;;;;;;;4952084;28;20043;-58
2021/10/24 13:26:03;;;;;;;4.95;2.45;;;;;;;;;;4958321;28;20492;-59
2021/10/24 13:28:29;;;;;;;5.15;2.22;;;;;;;;;;4953134;28;20051;-59
2021/10/24 13:30:55;;;;;;;6.25;2.40;;;;;;;;;;4952869;28;20043;-58
2021/10/24 13:33:21;;;;;;;5.82;2.80;;;;;;;;;;4952361;28;20039;-60
2021/10/24 13:35:48;;;;;;;4.68;2.30;;;;;;;;;;4953310;28;20047;-60
2021/10/24 13:38:14;;;;;;;4.95;2.60;;;;;;;;;;4954237;28;20042;-57
2021/10/24 13:40:39;;;;;;;5.60;2.17;;;;;;;;;;4952941;28;20054;-59
2021/10/24 13:43:05;;;;;;;4.32;2.00;;;;;;;;;;4952682;28;20468;-59
2021/10/24 13:45:32;;;;;;;3.85;2.10;;;;;;;;;;4952584;28;20502;-59
2021/10/24 13:47:59;;;;;;;6.00;2.50;;;;;;;;;;4953789;28;20625;-59
2021/10/24 13:50:25;;;;;;;3.78;2.05;;;;;;;;;;4952625;28;20500;-59
2021/10/24 13:52:51;;;;;;;10.02;2.67;;;;;;;;;;4952846;28;20125;-60
2021/10/24 13:55:18;;;;;;;4.65;2.50;;;;;;;;;;4952860;28;20354;-59
2021/10/24 13:57:44;;;;;;;5.55;2.35;;;;;;;;;;4950267;28;20088;-61
2021/10/24 14:00:10;;;;;;;4.90;2.28;;;;;;;;;;4952957;28;20034;-60
2021/10/24 14:02:36;;;;;;;4.32;2.13;;;;;;;;;;4953367;28;20110;-58
2021/10/24 14:05:05;;;;;;;4.53;2.30;;;;;;;;;;4953477;28;20459;-59
2021/10/24 14:07:34;;;;;;;4.97;2.40;;;;;;;;;;4953951;28;20054;-62
2021/10/24 14:10:00;;;;;;;4.10;1.90;;;;;;;;;;4954507;28;20094;-60
2021/10/24 14:12:26;;;;;;;7.60;2.47;;;;;;;;;;4955583;28;20043;-61
2021/10/24 14:14:52;;;;;;;4.07;2.30;;;;;;;;;;4957597;28;20050;-60
2021/10/24 14:17:18;;;;;;;5.95;2.35;;;;;;;;;;4957406;28;20154;-59
2021/10/24 14:19:44;;;;;;;5.57;2.50;;;;;;;;;;4957473;28;20047;-59
2021/10/24 14:22:10;;;;;;;3.47;1.88;;;;;;;;;;4957843;28;20043;-60
2021/10/24 14:24:36;;;;;;;4.50;2.20;;;;;;;;;;4955779;28;20142;-60
2021/10/24 14:27:02;;;;;;;5.25;2.33;;;;;;;;;;4960370;28;20051;-61
2021/10/24 14:29:28;;;;;;;5.03;2.75;;;;;;;;;;4971588;28;20047;-60
2021/10/24 14:31:54;;;;;;;5.07;2.78;;;;;;;;;;4957715;28;20042;-59
2021/10/24 14:34:20;;;;;;;7.65;3.13;;;;;;;;;;4954835;28;20408;-61
2021/10/24 14:36:45;;;;;;;5.93;2.65;;;;;;;;;;4957767;28;20031;-61
2021/10/24 14:39:12;;;;;;;5.47;2.78;;;;;;;;;;4956393;28;20624;-60